sensor_id;sensor_type;location;lat;lon;timestamp;temperature;humidity
2749;DHT22;1382;52.142;11.618;2022-11-11T00:00:49;13.60;52.40
2749;DHT22;1382;52.142;11.618;2022-11-11T00:03:16;13.50;52.20
2749;DHT22;1382;52.142;11.618;2022-11-11T00:05:51;13.60;52.50
2749;DHT22;1382;52.142;11.618;2022-11-11T00:08:17;13.50;52.50
2749;DHT22;1382;52.142;11.618;2022-11-11T00:10:44;13.50;52.50
2749;DHT22;1382;52.142;11.618;2022-11-11T00:13:11;13.40;52.40
2749;DHT22;1382;52.142;11.618;2022-11-11T00:15:38;13.40;52.50
2749;DHT22;1382;52.142;11.618;2022-11-11T00:18:05;13.40;52.40
2749;DHT22;1382;52.142;11.618;2022-11-11T00:20:32;13.40;52.40
2749;DHT22;1382;52.142;11.618;2022-11-11T00:23:02;13.40;53.10
2749;DHT22;1382;52.142;11.618;2022-11-11T00:25:29;13.40;52.60
2749;DHT22;1382;52.142;11.618;2022-11-11T00:27:56;13.30;52.50
2749;DHT22;1382;52.142;11.618;2022-11-11T00:30:22;13.30;52.60
2749;DHT22;1382;52.142;11.618;2022-11-11T00:32:49;13.30;52.70
2749;DHT22;1382;52.142;11.618;2022-11-11T00:35:16;13.30;52.60
2749;DHT22;1382;52.142;11.618;2022-11-11T00:37:44;13.30;52.70
2749;DHT22;1382;52.142;11.618;2022-11-11T00:42:40;13.20;52.70
2749;DHT22;1382;52.142;11.618;2022-11-11T00:45:09;13.20;52.60
2749;DHT22;1382;52.142;11.618;2022-11-11T00:47:36;13.10;52.50
2749;DHT22;1382;52.142;11.618;2022-11-11T00:50:04;13.10;52.60
2749;DHT22;1382;52.142;11.618;2022-11-11T00:52:31;13.10;52.50
2749;DHT22;1382;52.142;11.618;2022-11-11T00:54:58;13.10;52.50
2749;DHT22;1382;52.142;11.618;2022-11-11T00:57:27;13.20;52.60
2749;DHT22;1382;52.142;11.618;2022-11-11T00:59:53;13.10;52.70
2749;DHT22;1382;52.142;11.618;2022-11-11T01:02:20;13.10;52.70
2749;DHT22;1382;52.142;11.618;2022-11-11T01:04:47;13.00;52.60
2749;DHT22;1382;52.142;11.618;2022-11-11T01:07:14;13.00;52.70
2749;DHT22;1382;52.142;11.618;2022-11-11T01:09:41;12.90;52.70
2749;DHT22;1382;52.142;11.618;2022-11-11T01:12:07;12.90;52.70
2749;DHT22;1382;52.142;11.618;2022-11-11T01:14:36;12.90;52.80
2749;DHT22;1382;52.142;11.618;2022-11-11T01:17:03;12.90;52.90
2749;DHT22;1382;52.142;11.618;2022-11-11T01:19:30;12.90;52.90
2749;DHT22;1382;52.142;11.618;2022-11-11T01:21:56;12.90;52.80
2749;DHT22;1382;52.142;11.618;2022-11-11T01:24:24;12.90;52.80
2749;DHT22;1382;52.142;11.618;2022-11-11T01:26:51;12.90;52.80
2749;DHT22;1382;52.142;11.618;2022-11-11T01:29:18;12.80;52.70
2749;DHT22;1382;52.142;11.618;2022-11-11T01:31:46;12.90;53.00
2749;DHT22;1382;52.142;11.618;2022-11-11T01:34:13;13.00;53.30
2749;DHT22;1382;52.142;11.618;2022-11-11T01:36:40;13.00;53.30
2749;DHT22;1382;52.142;11.618;2022-11-11T01:39:08;12.80;54.00
2749;DHT22;1382;52.142;11.618;2022-11-11T01:41:35;12.80;53.20
2749;DHT22;1382;52.142;11.618;2022-11-11T01:44:16;12.80;53.10
2749;DHT22;1382;52.142;11.618;2022-11-11T01:46:48;12.80;53.30
2749;DHT22;1382;52.142;11.618;2022-11-11T01:49:22;13.00;53.70
2749;DHT22;1382;52.142;11.618;2022-11-11T01:51:56;12.80;53.50
2749;DHT22;1382;52.142;11.618;2022-11-11T01:54:28;12.80;53.50
2749;DHT22;1382;52.142;11.618;2022-11-11T01:56:59;12.80;53.40
2749;DHT22;1382;52.142;11.618;2022-11-11T01:59:27;12.80;53.30
2749;DHT22;1382;52.142;11.618;2022-11-11T02:01:58;12.90;53.30
2749;DHT22;1382;52.142;11.618;2022-11-11T02:04:25;12.80;53.50
2749;DHT22;1382;52.142;11.618;2022-11-11T02:06:54;12.80;53.30
2749;DHT22;1382;52.142;11.618;2022-11-11T02:09:23;12.70;53.10
2749;DHT22;1382;52.142;11.618;2022-11-11T02:11:53;12.70;53.30
2749;DHT22;1382;52.142;11.618;2022-11-11T02:14:20;12.70;53.50
2749;DHT22;1382;52.142;11.618;2022-11-11T02:16:48;12.80;53.50
2749;DHT22;1382;52.142;11.618;2022-11-11T02:19:22;12.80;53.70
2749;DHT22;1382;52.142;11.618;2022-11-11T02:21:58;12.80;53.50
2749;DHT22;1382;52.142;11.618;2022-11-11T02:24:32;12.70;53.50
2749;DHT22;1382;52.142;11.618;2022-11-11T02:27:11;12.80;53.40
2749;DHT22;1382;52.142;11.618;2022-11-11T02:29:55;12.80;53.40
2749;DHT22;1382;52.142;11.618;2022-11-11T02:32:43;12.70;53.20
2749;DHT22;1382;52.142;11.618;2022-11-11T02:36:02;12.70;53.20
2749;DHT22;1382;52.142;11.618;2022-11-11T02:38:19;12.70;53.70
2749;DHT22;1382;52.142;11.618;2022-11-11T02:40:59;12.80;53.10
2749;DHT22;1382;52.142;11.618;2022-11-11T02:50:10;12.60;52.70
2749;DHT22;1382;52.142;11.618;2022-11-11T02:53:06;12.60;52.70
2749;DHT22;1382;52.142;11.618;2022-11-11T02:59:32;12.70;52.50
2749;DHT22;1382;52.142;11.618;2022-11-11T03:09:14;12.50;52.40
2749;DHT22;1382;52.142;11.618;2022-11-11T03:11:41;12.50;52.60
2749;DHT22;1382;52.142;11.618;2022-11-11T03:14:08;12.60;52.70
2749;DHT22;1382;52.142;11.618;2022-11-11T03:16:37;12.70;52.70
2749;DHT22;1382;52.142;11.618;2022-11-11T03:19:04;12.60;53.40
2749;DHT22;1382;52.142;11.618;2022-11-11T03:31:43;12.30;52.50
2749;DHT22;1382;52.142;11.618;2022-11-11T03:34:10;12.40;52.70
2749;DHT22;1382;52.142;11.618;2022-11-11T03:36:37;12.40;52.50
2749;DHT22;1382;52.142;11.618;2022-11-11T03:39:03;12.40;52.50
2749;DHT22;1382;52.142;11.618;2022-11-11T03:41:30;12.40;52.50
2749;DHT22;1382;52.142;11.618;2022-11-11T03:43:57;12.40;52.50
2749;DHT22;1382;52.142;11.618;2022-11-11T03:47:14;12.40;52.50
2749;DHT22;1382;52.142;11.618;2022-11-11T03:52:55;12.40;52.50
2749;DHT22;1382;52.142;11.618;2022-11-11T03:55:32;12.30;52.50
2749;DHT22;1382;52.142;11.618;2022-11-11T03:58:32;12.30;52.50
2749;DHT22;1382;52.142;11.618;2022-11-11T04:01:06;12.30;52.50
2749;DHT22;1382;52.142;11.618;2022-11-11T04:03:38;12.30;52.70
2749;DHT22;1382;52.142;11.618;2022-11-11T04:06:43;12.40;52.80
2749;DHT22;1382;52.142;11.618;2022-11-11T04:09:26;12.30;52.70
2749;DHT22;1382;52.142;11.618;2022-11-11T04:12:22;12.40;53.00
2749;DHT22;1382;52.142;11.618;2022-11-11T04:22:38;12.20;52.70
2749;DHT22;1382;52.142;11.618;2022-11-11T04:25:07;12.10;53.10
2749;DHT22;1382;52.142;11.618;2022-11-11T04:27:41;12.20;53.20
2749;DHT22;1382;52.142;11.618;2022-11-11T04:30:08;12.10;53.30
2749;DHT22;1382;52.142;11.618;2022-11-11T04:32:35;12.10;53.00
2749;DHT22;1382;52.142;11.618;2022-11-11T04:35:05;12.20;53.10
2749;DHT22;1382;52.142;11.618;2022-11-11T04:37:43;12.20;53.00
2749;DHT22;1382;52.142;11.618;2022-11-11T04:40:12;12.30;53.10
2749;DHT22;1382;52.142;11.618;2022-11-11T04:42:42;12.20;53.10
2749;DHT22;1382;52.142;11.618;2022-11-11T04:45:13;12.30;53.10
2749;DHT22;1382;52.142;11.618;2022-11-11T04:47:55;12.20;53.10
2749;DHT22;1382;52.142;11.618;2022-11-11T04:50:29;12.10;53.00
2749;DHT22;1382;52.142;11.618;2022-11-11T04:53:03;12.30;53.20
2749;DHT22;1382;52.142;11.618;2022-11-11T04:55:40;12.30;53.20
2749;DHT22;1382;52.142;11.618;2022-11-11T04:58:09;12.20;53.00
2749;DHT22;1382;52.142;11.618;2022-11-11T05:00:36;12.20;52.90
2749;DHT22;1382;52.142;11.618;2022-11-11T05:03:03;12.20;52.90
2749;DHT22;1382;52.142;11.618;2022-11-11T05:05:30;12.20;53.00
2749;DHT22;1382;52.142;11.618;2022-11-11T05:07:57;12.20;53.00
2749;DHT22;1382;52.142;11.618;2022-11-11T05:10:24;12.30;53.20
2749;DHT22;1382;52.142;11.618;2022-11-11T05:12:52;12.30;52.90
2749;DHT22;1382;52.142;11.618;2022-11-11T05:15:19;12.20;53.00
2749;DHT22;1382;52.142;11.618;2022-11-11T05:17:46;12.20;53.00
2749;DHT22;1382;52.142;11.618;2022-11-11T05:20:13;12.20;52.90
2749;DHT22;1382;52.142;11.618;2022-11-11T05:22:40;12.20;53.00
2749;DHT22;1382;52.142;11.618;2022-11-11T05:25:09;12.30;53.10
2749;DHT22;1382;52.142;11.618;2022-11-11T05:27:36;12.20;52.70
2749;DHT22;1382;52.142;11.618;2022-11-11T05:30:07;12.30;53.50
2749;DHT22;1382;52.142;11.618;2022-11-11T05:32:34;12.20;52.70
2749;DHT22;1382;52.142;11.618;2022-11-11T05:35:01;12.20;52.60
2749;DHT22;1382;52.142;11.618;2022-11-11T05:37:29;12.20;52.60
2749;DHT22;1382;52.142;11.618;2022-11-11T05:39:55;12.20;52.50
2749;DHT22;1382;52.142;11.618;2022-11-11T05:42:22;12.20;52.60
2749;DHT22;1382;52.142;11.618;2022-11-11T05:44:49;12.20;52.50
2749;DHT22;1382;52.142;11.618;2022-11-11T05:47:18;12.20;52.50
2749;DHT22;1382;52.142;11.618;2022-11-11T05:49:47;12.20;52.30
2749;DHT22;1382;52.142;11.618;2022-11-11T05:52:15;12.40;52.40
2749;DHT22;1382;52.142;11.618;2022-11-11T05:54:44;12.20;52.20
2749;DHT22;1382;52.142;11.618;2022-11-11T05:57:11;12.20;52.10
2749;DHT22;1382;52.142;11.618;2022-11-11T05:59:47;12.20;52.20
2749;DHT22;1382;52.142;11.618;2022-11-11T06:02:22;12.30;52.30
2749;DHT22;1382;52.142;11.618;2022-11-11T06:05:01;12.20;52.50
2749;DHT22;1382;52.142;11.618;2022-11-11T06:07:50;12.20;52.30
2749;DHT22;1382;52.142;11.618;2022-11-11T06:10:33;12.10;52.10
2749;DHT22;1382;52.142;11.618;2022-11-11T06:13:07;12.10;52.00
2749;DHT22;1382;52.142;11.618;2022-11-11T06:15:34;12.10;52.00
2749;DHT22;1382;52.142;11.618;2022-11-11T06:18:06;12.20;52.30
2749;DHT22;1382;52.142;11.618;2022-11-11T06:20:36;12.10;52.20
2749;DHT22;1382;52.142;11.618;2022-11-11T06:23:20;12.00;52.30
2749;DHT22;1382;52.142;11.618;2022-11-11T06:26:01;12.00;52.20
2749;DHT22;1382;52.142;11.618;2022-11-11T06:28:40;12.00;52.50
2749;DHT22;1382;52.142;11.618;2022-11-11T06:31:29;12.00;52.30
2749;DHT22;1382;52.142;11.618;2022-11-11T06:34:04;12.00;52.30
2749;DHT22;1382;52.142;11.618;2022-11-11T06:36:30;11.90;52.20
2749;DHT22;1382;52.142;11.618;2022-11-11T06:38:57;12.00;52.40
2749;DHT22;1382;52.142;11.618;2022-11-11T06:41:27;11.90;52.40
2749;DHT22;1382;52.142;11.618;2022-11-11T06:44:01;11.90;52.70
2749;DHT22;1382;52.142;11.618;2022-11-11T06:46:35;11.90;52.70
2749;DHT22;1382;52.142;11.618;2022-11-11T06:49:04;11.90;52.50
2749;DHT22;1382;52.142;11.618;2022-11-11T06:51:30;11.80;52.40
2749;DHT22;1382;52.142;11.618;2022-11-11T06:53:57;11.80;52.30
2749;DHT22;1382;52.142;11.618;2022-11-11T06:56:24;11.80;52.20
2749;DHT22;1382;52.142;11.618;2022-11-11T06:58:50;11.90;52.40
2749;DHT22;1382;52.142;11.618;2022-11-11T07:01:17;11.80;52.30
2749;DHT22;1382;52.142;11.618;2022-11-11T07:03:44;11.90;52.50
2749;DHT22;1382;52.142;11.618;2022-11-11T07:06:12;12.00;52.60
2749;DHT22;1382;52.142;11.618;2022-11-11T07:08:39;11.80;52.70
2749;DHT22;1382;52.142;11.618;2022-11-11T07:11:06;11.80;52.80
2749;DHT22;1382;52.142;11.618;2022-11-11T07:13:44;11.80;52.70
2749;DHT22;1382;52.142;11.618;2022-11-11T07:16:10;11.90;52.70
2749;DHT22;1382;52.142;11.618;2022-11-11T07:18:37;11.80;52.90
2749;DHT22;1382;52.142;11.618;2022-11-11T07:21:04;11.80;53.00
2749;DHT22;1382;52.142;11.618;2022-11-11T07:23:32;11.80;53.00
2749;DHT22;1382;52.142;11.618;2022-11-11T07:25:59;11.90;53.30
2749;DHT22;1382;52.142;11.618;2022-11-11T07:28:26;11.90;53.50
2749;DHT22;1382;52.142;11.618;2022-11-11T07:30:53;11.90;53.20
2749;DHT22;1382;52.142;11.618;2022-11-11T07:33:20;11.90;53.10
2749;DHT22;1382;52.142;11.618;2022-11-11T07:35:50;11.90;53.00
2749;DHT22;1382;52.142;11.618;2022-11-11T07:38:17;11.90;53.20
2749;DHT22;1382;52.142;11.618;2022-11-11T07:40:45;11.90;53.20
2749;DHT22;1382;52.142;11.618;2022-11-11T07:43:12;11.90;53.20
2749;DHT22;1382;52.142;11.618;2022-11-11T07:45:38;12.00;53.10
2749;DHT22;1382;52.142;11.618;2022-11-11T07:48:05;12.00;53.20
2749;DHT22;1382;52.142;11.618;2022-11-11T07:50:32;12.10;53.40
2749;DHT22;1382;52.142;11.618;2022-11-11T07:52:59;12.20;53.50
2749;DHT22;1382;52.142;11.618;2022-11-11T07:55:25;12.10;53.60
2749;DHT22;1382;52.142;11.618;2022-11-11T07:57:53;12.10;53.70
2749;DHT22;1382;52.142;11.618;2022-11-11T08:00:20;12.20;53.30
2749;DHT22;1382;52.142;11.618;2022-11-11T08:02:48;12.20;53.30
2749;DHT22;1382;52.142;11.618;2022-11-11T08:05:15;12.20;53.30
2749;DHT22;1382;52.142;11.618;2022-11-11T08:07:42;12.30;53.10
2749;DHT22;1382;52.142;11.618;2022-11-11T08:10:09;12.30;53.10
2749;DHT22;1382;52.142;11.618;2022-11-11T08:12:35;12.30;53.30
2749;DHT22;1382;52.142;11.618;2022-11-11T08:15:04;12.50;53.60
2749;DHT22;1382;52.142;11.618;2022-11-11T08:17:36;12.40;53.30
2749;DHT22;1382;52.142;11.618;2022-11-11T08:20:03;12.60;53.70
2749;DHT22;1382;52.142;11.618;2022-11-11T08:22:35;12.50;53.30
2749;DHT22;1382;52.142;11.618;2022-11-11T08:25:02;12.50;53.20
2749;DHT22;1382;52.142;11.618;2022-11-11T08:27:31;12.50;53.30
2749;DHT22;1382;52.142;11.618;2022-11-11T08:29:57;12.60;53.50
2749;DHT22;1382;52.142;11.618;2022-11-11T08:32:26;12.60;53.30
2749;DHT22;1382;52.142;11.618;2022-11-11T08:34:53;12.70;53.60
2749;DHT22;1382;52.142;11.618;2022-11-11T08:37:20;12.70;53.30
2749;DHT22;1382;52.142;11.618;2022-11-11T08:39:46;12.70;53.40
2749;DHT22;1382;52.142;11.618;2022-11-11T08:42:13;12.80;53.50
2749;DHT22;1382;52.142;11.618;2022-11-11T08:44:40;12.80;53.60
2749;DHT22;1382;52.142;11.618;2022-11-11T08:47:07;12.90;53.60
2749;DHT22;1382;52.142;11.618;2022-11-11T08:49:35;12.90;53.60
2749;DHT22;1382;52.142;11.618;2022-11-11T08:52:02;12.90;53.60
2749;DHT22;1382;52.142;11.618;2022-11-11T08:54:28;13.00;53.40
2749;DHT22;1382;52.142;11.618;2022-11-11T08:56:55;13.00;53.20
2749;DHT22;1382;52.142;11.618;2022-11-11T08:59:22;13.00;53.40
2749;DHT22;1382;52.142;11.618;2022-11-11T09:01:49;13.10;53.50
2749;DHT22;1382;52.142;11.618;2022-11-11T09:04:15;13.10;53.40
2749;DHT22;1382;52.142;11.618;2022-11-11T09:07:04;13.20;53.60
2749;DHT22;1382;52.142;11.618;2022-11-11T09:09:30;13.30;53.70
2749;DHT22;1382;52.142;11.618;2022-11-11T09:11:57;13.20;53.20
2749;DHT22;1382;52.142;11.618;2022-11-11T09:14:24;13.30;53.60
2749;DHT22;1382;52.142;11.618;2022-11-11T09:16:51;13.40;53.70
2749;DHT22;1382;52.142;11.618;2022-11-11T09:19:18;13.50;53.50
2749;DHT22;1382;52.142;11.618;2022-11-11T09:21:45;13.40;53.40
2749;DHT22;1382;52.142;11.618;2022-11-11T09:24:13;13.50;53.50
2749;DHT22;1382;52.142;11.618;2022-11-11T09:26:39;13.50;53.50
2749;DHT22;1382;52.142;11.618;2022-11-11T09:29:06;13.60;53.30
2749;DHT22;1382;52.142;11.618;2022-11-11T09:31:33;13.80;53.60
2749;DHT22;1382;52.142;11.618;2022-11-11T09:34:11;13.90;53.50
2749;DHT22;1382;52.142;11.618;2022-11-11T09:36:38;13.80;53.60
2749;DHT22;1382;52.142;11.618;2022-11-11T09:39:05;13.80;53.30
2749;DHT22;1382;52.142;11.618;2022-11-11T09:41:41;14.10;53.50
2749;DHT22;1382;52.142;11.618;2022-11-11T09:44:21;13.90;53.40
2749;DHT22;1382;52.142;11.618;2022-11-11T09:46:55;14.00;54.20
2749;DHT22;1382;52.142;11.618;2022-11-11T09:49:34;14.00;53.30
2749;DHT22;1382;52.142;11.618;2022-11-11T09:52:07;14.00;53.30
2749;DHT22;1382;52.142;11.618;2022-11-11T09:54:41;14.10;53.40
2749;DHT22;1382;52.142;11.618;2022-11-11T09:57:14;14.10;53.20
2749;DHT22;1382;52.142;11.618;2022-11-11T09:59:45;14.30;53.60
2749;DHT22;1382;52.142;11.618;2022-11-11T10:02:23;14.10;53.40
2749;DHT22;1382;52.142;11.618;2022-11-11T10:04:59;14.10;53.60
2749;DHT22;1382;52.142;11.618;2022-11-11T10:07:34;14.10;53.70
2749;DHT22;1382;52.142;11.618;2022-11-11T10:10:11;14.10;53.70
2749;DHT22;1382;52.142;11.618;2022-11-11T10:12:45;14.10;53.60
2749;DHT22;1382;52.142;11.618;2022-11-11T10:15:13;14.20;53.80
2749;DHT22;1382;52.142;11.618;2022-11-11T10:17:49;14.20;53.70
2749;DHT22;1382;52.142;11.618;2022-11-11T10:20:22;14.30;53.80
2749;DHT22;1382;52.142;11.618;2022-11-11T10:22:56;14.30;53.70
2749;DHT22;1382;52.142;11.618;2022-11-11T10:25:26;14.30;53.70
2749;DHT22;1382;52.142;11.618;2022-11-11T10:27:57;14.30;53.70
2749;DHT22;1382;52.142;11.618;2022-11-11T10:30:26;14.50;53.70
2749;DHT22;1382;52.142;11.618;2022-11-11T10:33:00;14.40;53.50
2749;DHT22;1382;52.142;11.618;2022-11-11T10:35:29;14.40;53.50
2749;DHT22;1382;52.142;11.618;2022-11-11T10:38:18;14.50;53.60
2749;DHT22;1382;52.142;11.618;2022-11-11T10:40:49;14.60;53.50
2749;DHT22;1382;52.142;11.618;2022-11-11T10:43:24;14.50;53.50
2749;DHT22;1382;52.142;11.618;2022-11-11T10:45:59;14.60;53.60
2749;DHT22;1382;52.142;11.618;2022-11-11T10:48:33;14.70;53.60
2749;DHT22;1382;52.142;11.618;2022-11-11T10:51:09;14.70;53.50
2749;DHT22;1382;52.142;11.618;2022-11-11T10:53:41;14.70;53.30
2749;DHT22;1382;52.142;11.618;2022-11-11T10:56:16;14.80;53.50
2749;DHT22;1382;52.142;11.618;2022-11-11T10:58:51;14.80;53.60
2749;DHT22;1382;52.142;11.618;2022-11-11T11:01:26;14.90;53.50
2749;DHT22;1382;52.142;11.618;2022-11-11T11:03:58;15.00;53.10
2749;DHT22;1382;52.142;11.618;2022-11-11T11:06:30;15.00;53.00
2749;DHT22;1382;52.142;11.618;2022-11-11T11:09:05;15.10;53.00
2749;DHT22;1382;52.142;11.618;2022-11-11T11:11:37;15.10;52.70
2749;DHT22;1382;52.142;11.618;2022-11-11T11:14:14;15.30;52.80
2749;DHT22;1382;52.142;11.618;2022-11-11T11:16:47;15.40;53.10
2749;DHT22;1382;52.142;11.618;2022-11-11T11:19:17;15.30;52.90
2749;DHT22;1382;52.142;11.618;2022-11-11T11:21:49;15.50;52.80
2749;DHT22;1382;52.142;11.618;2022-11-11T11:24:21;15.50;52.80
2749;DHT22;1382;52.142;11.618;2022-11-11T11:26:49;15.50;52.60
2749;DHT22;1382;52.142;11.618;2022-11-11T11:29:25;15.60;52.70
2749;DHT22;1382;52.142;11.618;2022-11-11T11:31:53;15.70;52.50
2749;DHT22;1382;52.142;11.618;2022-11-11T11:34:20;15.70;52.30
2749;DHT22;1382;52.142;11.618;2022-11-11T11:36:59;15.80;52.20
2749;DHT22;1382;52.142;11.618;2022-11-11T11:39:33;15.90;52.40
2749;DHT22;1382;52.142;11.618;2022-11-11T11:42:01;15.90;52.30
2749;DHT22;1382;52.142;11.618;2022-11-11T11:44:30;15.90;52.30
2749;DHT22;1382;52.142;11.618;2022-11-11T11:47:07;16.00;52.10
2749;DHT22;1382;52.142;11.618;2022-11-11T11:49:51;16.10;52.10
2749;DHT22;1382;52.142;11.618;2022-11-11T11:52:32;16.20;52.10
2749;DHT22;1382;52.142;11.618;2022-11-11T11:55:14;16.20;51.90
2749;DHT22;1382;52.142;11.618;2022-11-11T11:57:51;16.30;51.90
2749;DHT22;1382;52.142;11.618;2022-11-11T12:00:22;16.40;51.90
2749;DHT22;1382;52.142;11.618;2022-11-11T12:05:59;16.60;52.00
2749;DHT22;1382;52.142;11.618;2022-11-11T12:08:41;16.60;52.00
2749;DHT22;1382;52.142;11.618;2022-11-11T12:11:16;16.90;52.60
2749;DHT22;1382;52.142;11.618;2022-11-11T12:13:52;16.90;51.90
2749;DHT22;1382;52.142;11.618;2022-11-11T12:16:26;17.10;51.80
2749;DHT22;1382;52.142;11.618;2022-11-11T12:19:06;17.10;51.80
2749;DHT22;1382;52.142;11.618;2022-11-11T12:21:43;17.20;51.50
2749;DHT22;1382;52.142;11.618;2022-11-11T12:24:26;17.30;51.60
2749;DHT22;1382;52.142;11.618;2022-11-11T12:27:03;17.40;51.50
2749;DHT22;1382;52.142;11.618;2022-11-11T12:29:41;17.70;51.60
2749;DHT22;1382;52.142;11.618;2022-11-11T12:32:27;17.60;51.20
2749;DHT22;1382;52.142;11.618;2022-11-11T12:35:15;17.80;51.10
2749;DHT22;1382;52.142;11.618;2022-11-11T12:37:53;17.90;50.90
2749;DHT22;1382;52.142;11.618;2022-11-11T12:40:28;18.00;50.80
2749;DHT22;1382;52.142;11.618;2022-11-11T12:43:10;18.20;50.40
2749;DHT22;1382;52.142;11.618;2022-11-11T12:45:45;18.30;49.80
2749;DHT22;1382;52.142;11.618;2022-11-11T12:48:27;18.40;49.60
2749;DHT22;1382;52.142;11.618;2022-11-11T12:51:04;18.40;48.90
2749;DHT22;1382;52.142;11.618;2022-11-11T12:53:36;18.50;48.70
2749;DHT22;1382;52.142;11.618;2022-11-11T12:56:10;18.60;48.50
2749;DHT22;1382;52.142;11.618;2022-11-11T12:58:43;18.70;48.80
2749;DHT22;1382;52.142;11.618;2022-11-11T13:01:19;18.90;48.40
2749;DHT22;1382;52.142;11.618;2022-11-11T13:04:03;18.90;47.90
2749;DHT22;1382;52.142;11.618;2022-11-11T13:06:47;19.10;47.30
2749;DHT22;1382;52.142;11.618;2022-11-11T13:09:28;19.30;46.50
2749;DHT22;1382;52.142;11.618;2022-11-11T13:12:14;19.30;46.20
2749;DHT22;1382;52.142;11.618;2022-11-11T13:15:17;19.60;46.70
2749;DHT22;1382;52.142;11.618;2022-11-11T13:18:06;19.60;46.70
2749;DHT22;1382;52.142;11.618;2022-11-11T13:20:45;19.60;46.00
2749;DHT22;1382;52.142;11.618;2022-11-11T13:23:19;19.80;45.60
2749;DHT22;1382;52.142;11.618;2022-11-11T13:25:47;20.00;46.50
2749;DHT22;1382;52.142;11.618;2022-11-11T13:28:21;19.90;46.00
2749;DHT22;1382;52.142;11.618;2022-11-11T13:31:05;20.00;46.20
2749;DHT22;1382;52.142;11.618;2022-11-11T13:33:39;20.10;45.60
2749;DHT22;1382;52.142;11.618;2022-11-11T13:36:10;20.00;45.20
2749;DHT22;1382;52.142;11.618;2022-11-11T13:38:44;20.00;44.90
2749;DHT22;1382;52.142;11.618;2022-11-11T13:41:18;20.00;45.40
2749;DHT22;1382;52.142;11.618;2022-11-11T13:43:47;20.00;45.60
2749;DHT22;1382;52.142;11.618;2022-11-11T13:46:30;20.10;46.20
2749;DHT22;1382;52.142;11.618;2022-11-11T13:48:59;20.00;46.00
2749;DHT22;1382;52.142;11.618;2022-11-11T13:51:32;19.90;46.10
2749;DHT22;1382;52.142;11.618;2022-11-11T13:54:03;20.00;46.00
2749;DHT22;1382;52.142;11.618;2022-11-11T13:56:35;19.90;45.90
2749;DHT22;1382;52.142;11.618;2022-11-11T13:59:03;19.90;45.90
2749;DHT22;1382;52.142;11.618;2022-11-11T14:01:33;19.80;46.10
2749;DHT22;1382;52.142;11.618;2022-11-11T14:04:08;19.80;46.00
2749;DHT22;1382;52.142;11.618;2022-11-11T14:06:52;19.80;46.20
2749;DHT22;1382;52.142;11.618;2022-11-11T14:09:55;19.80;46.00
2749;DHT22;1382;52.142;11.618;2022-11-11T14:12:37;19.80;46.00
2749;DHT22;1382;52.142;11.618;2022-11-11T14:15:08;19.70;46.20
2749;DHT22;1382;52.142;11.618;2022-11-11T14:17:53;19.60;46.70
2749;DHT22;1382;52.142;11.618;2022-11-11T14:20:36;19.60;46.60
2749;DHT22;1382;52.142;11.618;2022-11-11T14:23:26;19.60;46.40
2749;DHT22;1382;52.142;11.618;2022-11-11T14:26:28;19.60;46.60
2749;DHT22;1382;52.142;11.618;2022-11-11T14:28:57;19.50;46.40
2749;DHT22;1382;52.142;11.618;2022-11-11T14:31:52;19.40;46.60
2749;DHT22;1382;52.142;11.618;2022-11-11T14:34:37;19.50;46.50
2749;DHT22;1382;52.142;11.618;2022-11-11T14:37:18;19.40;46.40
2749;DHT22;1382;52.142;11.618;2022-11-11T14:39:51;19.40;46.40
2749;DHT22;1382;52.142;11.618;2022-11-11T14:42:43;19.30;46.20
2749;DHT22;1382;52.142;11.618;2022-11-11T14:48:57;19.30;46.30
2749;DHT22;1382;52.142;11.618;2022-11-11T14:51:50;19.20;46.50
2749;DHT22;1382;52.142;11.618;2022-11-11T14:54:23;19.20;46.50
2749;DHT22;1382;52.142;11.618;2022-11-11T14:56:57;19.10;46.30
2749;DHT22;1382;52.142;11.618;2022-11-11T14:59:30;19.00;46.40
2749;DHT22;1382;52.142;11.618;2022-11-11T15:01:58;19.00;46.50
2749;DHT22;1382;52.142;11.618;2022-11-11T15:04:26;19.10;46.80
2749;DHT22;1382;52.142;11.618;2022-11-11T15:06:57;19.00;46.80
2749;DHT22;1382;52.142;11.618;2022-11-11T15:09:44;18.90;46.60
2749;DHT22;1382;52.142;11.618;2022-11-11T15:12:22;18.90;46.60
2749;DHT22;1382;52.142;11.618;2022-11-11T15:14:57;18.80;46.70
2749;DHT22;1382;52.142;11.618;2022-11-11T15:17:35;18.90;46.70
2749;DHT22;1382;52.142;11.618;2022-11-11T15:20:18;18.70;46.60
2749;DHT22;1382;52.142;11.618;2022-11-11T15:22:54;18.80;47.00
2749;DHT22;1382;52.142;11.618;2022-11-11T15:25:33;18.80;46.90
2749;DHT22;1382;52.142;11.618;2022-11-11T15:28:06;18.60;46.90
2749;DHT22;1382;52.142;11.618;2022-11-11T15:30:52;18.60;47.10
2749;DHT22;1382;52.142;11.618;2022-11-11T15:33:27;18.70;47.20
2749;DHT22;1382;52.142;11.618;2022-11-11T15:36:07;18.50;47.30
2749;DHT22;1382;52.142;11.618;2022-11-11T15:38:38;18.40;47.40
2749;DHT22;1382;52.142;11.618;2022-11-11T15:41:10;18.40;47.50
2749;DHT22;1382;52.142;11.618;2022-11-11T15:43:47;18.30;47.60
2749;DHT22;1382;52.142;11.618;2022-11-11T15:46:20;18.30;47.70
2749;DHT22;1382;52.142;11.618;2022-11-11T15:48:48;18.20;47.70
2749;DHT22;1382;52.142;11.618;2022-11-11T15:51:15;18.20;48.00
2749;DHT22;1382;52.142;11.618;2022-11-11T15:53:43;18.10;48.10
2749;DHT22;1382;52.142;11.618;2022-11-11T15:56:10;18.10;48.20
2749;DHT22;1382;52.142;11.618;2022-11-11T15:58:37;18.10;48.30
2749;DHT22;1382;52.142;11.618;2022-11-11T16:01:28;18.00;48.30
2749;DHT22;1382;52.142;11.618;2022-11-11T16:03:55;18.00;48.30
2749;DHT22;1382;52.142;11.618;2022-11-11T16:06:22;17.90;48.60
2749;DHT22;1382;52.142;11.618;2022-11-11T16:08:52;17.90;48.70
2749;DHT22;1382;52.142;11.618;2022-11-11T16:11:20;17.80;48.60
2749;DHT22;1382;52.142;11.618;2022-11-11T16:13:50;17.70;48.80
2749;DHT22;1382;52.142;11.618;2022-11-11T16:16:27;17.70;48.90
2749;DHT22;1382;52.142;11.618;2022-11-11T16:18:59;17.60;48.90
2749;DHT22;1382;52.142;11.618;2022-11-11T16:21:30;17.60;49.00
2749;DHT22;1382;52.142;11.618;2022-11-11T16:24:03;17.50;49.10
2749;DHT22;1382;52.142;11.618;2022-11-11T16:26:31;17.40;49.00
2749;DHT22;1382;52.142;11.618;2022-11-11T16:28:59;17.40;49.20
2749;DHT22;1382;52.142;11.618;2022-11-11T16:31:36;17.30;49.00
2749;DHT22;1382;52.142;11.618;2022-11-11T16:34:33;17.30;48.80
2749;DHT22;1382;52.142;11.618;2022-11-11T16:37:00;17.20;48.90
2749;DHT22;1382;52.142;11.618;2022-11-11T16:39:29;17.10;49.10
2749;DHT22;1382;52.142;11.618;2022-11-11T16:41:57;17.00;49.10
2749;DHT22;1382;52.142;11.618;2022-11-11T16:44:33;17.00;49.30
2749;DHT22;1382;52.142;11.618;2022-11-11T16:47:03;16.90;49.10
2749;DHT22;1382;52.142;11.618;2022-11-11T16:49:32;16.80;49.30
2749;DHT22;1382;52.142;11.618;2022-11-11T16:52:08;16.70;49.40
2749;DHT22;1382;52.142;11.618;2022-11-11T16:54:38;16.70;49.40
2749;DHT22;1382;52.142;11.618;2022-11-11T16:57:15;16.60;49.60
2749;DHT22;1382;52.142;11.618;2022-11-11T16:59:44;16.70;49.80
2749;DHT22;1382;52.142;11.618;2022-11-11T17:02:15;16.50;49.70
2749;DHT22;1382;52.142;11.618;2022-11-11T17:04:46;16.50;49.70
2749;DHT22;1382;52.142;11.618;2022-11-11T17:07:27;16.50;49.60